Time;durP1;ratioP1;P1;durP2;ratioP2;P2;SDS_P1;SDS_P2;PMS_P1;PMS_P2;Temp;Humidity;BMP_temperature;BMP_pressure;BME280_temperature;BME280_humidity;BME280_pressure;Samples;Min_cycle;Max_cycle;Signal;HPM_P1;HPM_P2
2021/05/14 00:00:54;;;;;;;0.93;0.93;;;;;;;;;;5077498;28;20021;-65
2021/05/14 00:03:20;;;;;;;0.88;0.70;;;;;;;;;;5077110;28;20021;-65
2021/05/14 00:05:46;;;;;;;2.25;0.57;;;;;;;;;;5076829;28;20046;-65
2021/05/14 00:08:12;;;;;;;1.00;0.73;;;;;;;;;;5077574;28;20457;-65
2021/05/14 00:10:39;;;;;;;1.35;0.55;;;;;;;;;;5076421;28;20039;-65
2021/05/14 00:13:09;;;;;;;2.05;1.20;;;;;;;;;;5077223;28;20063;-65
2021/05/14 00:15:35;;;;;;;1.13;0.95;;;;;;;;;;5076913;28;20054;-65
2021/05/14 00:18:01;;;;;;;5.80;1.40;;;;;;;;;;5076980;28;20021;-65
2021/05/14 00:20:27;;;;;;;8.40;7.60;;;;;;;;;;5076834;28;20169;-65
2021/05/14 00:22:54;;;;;;;7.93;4.78;;;;;;;;;;5076505;28;20052;-65
2021/05/14 00:25:20;;;;;;;6.45;5.30;;;;;;;;;;5076470;28;20361;-65
2021/05/14 00:27:46;;;;;;;5.63;3.67;;;;;;;;;;5076404;28;20035;-63
2021/05/14 00:30:13;;;;;;;4.13;3.58;;;;;;;;;;5076815;28;20037;-64
2021/05/14 00:32:39;;;;;;;2.40;2.20;;;;;;;;;;5076058;28;20016;-64
2021/05/14 00:35:06;;;;;;;2.47;1.88;;;;;;;;;;5075793;28;20459;-64
2021/05/14 00:37:32;;;;;;;2.47;1.60;;;;;;;;;;5076691;28;20020;-64
2021/05/14 00:39:58;;;;;;;1.40;1.30;;;;;;;;;;5074848;28;20055;-64
2021/05/14 00:42:24;;;;;;;0.82;0.82;;;;;;;;;;5076766;28;20024;-64
2021/05/14 00:44:50;;;;;;;1.50;1.08;;;;;;;;;;5076372;28;20094;-63
2021/05/14 00:47:18;;;;;;;1.00;1.00;;;;;;;;;;5076301;28;20076;-63
2021/05/14 00:49:45;;;;;;;0.95;0.77;;;;;;;;;;5076556;28;20037;-64
2021/05/14 00:52:16;;;;;;;0.85;0.60;;;;;;;;;;5076528;28;20020;-64
2021/05/14 00:54:42;;;;;;;1.33;1.15;;;;;;;;;;5075709;28;20390;-64
2021/05/14 00:57:09;;;;;;;1.15;0.77;;;;;;;;;;5076201;28;20025;-65
2021/05/14 00:59:35;;;;;;;1.13;0.80;;;;;;;;;;5075613;28;20416;-66
2021/05/14 01:02:01;;;;;;;0.82;0.80;;;;;;;;;;5076373;28;20024;-65
2021/05/14 01:04:27;;;;;;;0.98;0.50;;;;;;;;;;5076857;28;20384;-65
2021/05/14 01:06:54;;;;;;;1.90;1.08;;;;;;;;;;5075896;28;20035;-65
2021/05/14 01:09:20;;;;;;;1.92;0.73;;;;;;;;;;5075620;28;20501;-66
2021/05/14 01:11:46;;;;;;;2.25;0.68;;;;;;;;;;5075857;28;20024;-66
2021/05/14 01:14:12;;;;;;;0.40;0.40;;;;;;;;;;5075602;28;20021;-64
2021/05/14 01:16:39;;;;;;;1.30;0.95;;;;;;;;;;5075541;28;20028;-64
2021/05/14 01:19:05;;;;;;;2.13;0.40;;;;;;;;;;5076081;28;20047;-64
2021/05/14 01:21:31;;;;;;;1.17;1.00;;;;;;;;;;5075725;28;20029;-64
2021/05/14 01:23:58;;;;;;;0.70;0.70;;;;;;;;;;5075760;28;20059;-64
2021/05/14 01:26:26;;;;;;;1.88;1.48;;;;;;;;;;5075367;28;20031;-65
2021/05/14 01:28:52;;;;;;;1.13;1.13;;;;;;;;;;5075185;28;20039;-65
2021/05/14 01:31:18;;;;;;;1.55;0.82;;;;;;;;;;5076084;28;20487;-63
2021/05/14 01:33:46;;;;;;;1.63;1.20;;;;;;;;;;5075778;28;20086;-65
2021/05/14 01:36:12;;;;;;;1.50;1.38;;;;;;;;;;5074887;28;20021;-63
2021/05/14 01:38:38;;;;;;;1.70;1.43;;;;;;;;;;5075654;28;20025;-64
2021/05/14 01:41:04;;;;;;;0.90;0.90;;;;;;;;;;5074075;28;20020;-64
2021/05/14 01:43:31;;;;;;;0.40;0.40;;;;;;;;;;5075206;28;20135;-64
2021/05/14 01:45:57;;;;;;;1.60;0.80;;;;;;;;;;5075060;28;20056;-65
2021/05/14 01:48:23;;;;;;;1.30;1.20;;;;;;;;;;5075379;28;20028;-64
2021/05/14 01:50:50;;;;;;;1.13;1.10;;;;;;;;;;5073098;28;20024;-64
2021/05/14 01:53:16;;;;;;;0.82;0.80;;;;;;;;;;5074820;28;20569;-64
2021/05/14 01:55:42;;;;;;;0.95;0.82;;;;;;;;;;5074974;28;20024;-64
2021/05/14 01:58:08;;;;;;;1.55;0.80;;;;;;;;;;5075211;28;20021;-65
2021/05/14 02:00:35;;;;;;;2.33;1.60;;;;;;;;;;5074959;28;20021;-65
2021/05/14 02:03:01;;;;;;;1.75;1.75;;;;;;;;;;5074530;28;20020;-65
2021/05/14 02:05:27;;;;;;;1.85;0.70;;;;;;;;;;5074851;28;20017;-65
2021/05/14 02:07:55;;;;;;;1.20;1.10;;;;;;;;;;5075220;28;20081;-65
2021/05/14 02:10:21;;;;;;;0.85;0.85;;;;;;;;;;5074782;28;20030;-64
2021/05/14 02:12:47;;;;;;;0.80;0.80;;;;;;;;;;5075180;28;20053;-64
2021/05/14 02:15:13;;;;;;;0.73;0.73;;;;;;;;;;5074966;28;20354;-65
2021/05/14 02:17:40;;;;;;;0.90;0.75;;;;;;;;;;5074314;28;20040;-64
2021/05/14 02:20:06;;;;;;;0.75;0.70;;;;;;;;;;5074854;28;20039;-64
2021/05/14 02:22:33;;;;;;;0.35;0.35;;;;;;;;;;5074554;28;20079;-65
2021/05/14 02:24:59;;;;;;;0.80;0.80;;;;;;;;;;5073061;28;20075;-64
2021/05/14 02:27:25;;;;;;;1.00;1.00;;;;;;;;;;5074474;28;20028;-64
2021/05/14 02:29:52;;;;;;;1.10;1.10;;;;;;;;;;5074337;28;20067;-64
2021/05/14 02:32:18;;;;;;;0.68;0.68;;;;;;;;;;5074077;28;20021;-64
2021/05/14 02:34:44;;;;;;;6.25;0.77;;;;;;;;;;5074569;28;20013;-64
2021/05/14 02:37:11;;;;;;;0.70;0.70;;;;;;;;;;5074269;28;20059;-64
2021/05/14 02:39:37;;;;;;;1.13;1.13;;;;;;;;;;5073666;28;20503;-64
2021/05/14 02:42:03;;;;;;;0.90;0.88;;;;;;;;;;5073839;28;20429;-64
2021/05/14 02:44:30;;;;;;;1.67;1.57;;;;;;;;;;5073879;28;20030;-64
2021/05/14 02:46:56;;;;;;;0.75;0.75;;;;;;;;;;5073723;28;20531;-63
2021/05/14 02:49:23;;;;;;;0.63;0.33;;;;;;;;;;5074334;28;20037;-63
2021/05/14 02:51:49;;;;;;;0.85;0.85;;;;;;;;;;5073792;28;20298;-63
2021/05/14 02:54:16;;;;;;;0.80;0.80;;;;;;;;;;5074054;28;20027;-64
2021/05/14 02:56:42;;;;;;;0.70;0.63;;;;;;;;;;5074577;28;20024;-64
2021/05/14 02:59:08;;;;;;;1.08;1.08;;;;;;;;;;5073753;28;20024;-63
2021/05/14 03:01:34;;;;;;;0.68;0.68;;;;;;;;;;5073835;28;20050;-64
2021/05/14 03:04:01;;;;;;;0.68;0.68;;;;;;;;;;5073080;28;20028;-64
2021/05/14 03:06:28;;;;;;;0.65;0.65;;;;;;;;;;5073246;28;20020;-64
2021/05/14 03:08:54;;;;;;;0.70;0.70;;;;;;;;;;5073515;28;20478;-65
2021/05/14 03:11:20;;;;;;;0.60;0.60;;;;;;;;;;5073843;28;20025;-65
2021/05/14 03:13:46;;;;;;;1.27;0.43;;;;;;;;;;5073157;28;20047;-65
2021/05/14 03:16:12;;;;;;;0.60;0.60;;;;;;;;;;5073775;28;20040;-65
2021/05/14 03:18:38;;;;;;;0.57;0.40;;;;;;;;;;5073791;28;20071;-63
2021/05/14 03:21:05;;;;;;;0.43;0.43;;;;;;;;;;5073421;28;20025;-64
2021/05/14 03:23:31;;;;;;;2.42;0.50;;;;;;;;;;5073462;28;20021;-65
2021/05/14 03:25:57;;;;;;;0.43;0.43;;;;;;;;;;5073692;28;20535;-64
2021/05/14 03:28:23;;;;;;;0.77;0.40;;;;;;;;;;5073007;28;20032;-64
2021/05/14 03:30:51;;;;;;;1.48;0.52;;;;;;;;;;5072715;28;20069;-71
2021/05/14 03:33:21;;;;;;;0.68;0.43;;;;;;;;;;5072194;28;20800;-67
2021/05/14 03:35:49;;;;;;;3.80;0.90;;;;;;;;;;5071843;28;20019;-64
2021/05/14 03:38:15;;;;;;;1.58;0.40;;;;;;;;;;5072402;28;20040;-65
2021/05/14 03:40:42;;;;;;;1.30;0.28;;;;;;;;;;5071951;28;20032;-65
2021/05/14 03:43:09;;;;;;;1.08;0.30;;;;;;;;;;5072054;28;20091;-65
2021/05/14 03:45:35;;;;;;;1.13;0.20;;;;;;;;;;5071733;28;20053;-66
2021/05/14 03:48:17;;;;;;;0.85;0.45;;;;;;;;;;5071999;28;20036;-66
2021/05/14 03:50:44;;;;;;;2.28;0.38;;;;;;;;;;5070242;28;20021;-66
2021/05/14 03:53:10;;;;;;;;;;;;;;;;;;5072256;28;20456;-67
2021/05/14 03:55:37;;;;;;;0.97;0.40;;;;;;;;;;5070553;28;19915;-66
2021/05/14 03:58:03;;;;;;;3.03;0.45;;;;;;;;;;5070776;28;20469;-65
2021/05/14 04:00:29;;;;;;;0.35;0.35;;;;;;;;;;5071817;28;20021;-66
2021/05/14 04:02:56;;;;;;;1.75;0.90;;;;;;;;;;5071640;28;20044;-65
2021/05/14 04:05:23;;;;;;;1.67;0.43;;;;;;;;;;5072522;28;20066;-66
2021/05/14 04:07:49;;;;;;;4.78;1.20;;;;;;;;;;5072450;28;20021;-66
2021/05/14 04:15:43;;;;;;;0.60;0.40;;;;;;;;;;5055595;28;20504;-66
2021/05/14 04:18:09;;;;;;;2.40;0.90;;;;;;;;;;5076211;28;20107;-65
2021/05/14 04:20:35;;;;;;;0.93;0.50;;;;;;;;;;5076787;28;20099;-63
2021/05/14 04:23:02;;;;;;;1.08;1.08;;;;;;;;;;5076814;28;20031;-64
2021/05/14 04:25:30;;;;;;;1.20;1.10;;;;;;;;;;5076945;28;20091;-63
2021/05/14 04:27:56;;;;;;;0.93;0.93;;;;;;;;;;5075496;28;20724;-63
2021/05/14 04:30:22;;;;;;;2.78;2.67;;;;;;;;;;5076409;28;20032;-65
2021/05/14 04:32:48;;;;;;;7.47;6.97;;;;;;;;;;5076632;28;20116;-64
2021/05/14 04:35:14;;;;;;;8.90;8.20;;;;;;;;;;5076290;28;20028;-65
2021/05/14 04:37:40;;;;;;;10.60;9.80;;;;;;;;;;5076406;28;20016;-64
2021/05/14 04:40:07;;;;;;;8.68;6.57;;;;;;;;;;5076515;28;20431;-64
2021/05/14 04:42:33;;;;;;;2.70;2.60;;;;;;;;;;5076490;28;20016;-64
2021/05/14 04:44:59;;;;;;;3.17;2.90;;;;;;;;;;5075876;28;20048;-64
2021/05/14 04:47:25;;;;;;;2.90;2.25;;;;;;;;;;5076032;28;20052;-65
2021/05/14 04:49:51;;;;;;;7.15;2.03;;;;;;;;;;5076534;28;20491;-62
2021/05/14 04:52:21;;;;;;;2.65;2.13;;;;;;;;;;5075670;28;20374;-66
2021/05/14 04:54:47;;;;;;;4.95;2.33;;;;;;;;;;5075955;28;20020;-66
2021/05/14 04:57:13;;;;;;;8.68;1.98;;;;;;;;;;5076217;28;20103;-65
2021/05/14 04:59:42;;;;;;;4.23;2.80;;;;;;;;;;5075577;28;20443;-65
2021/05/14 05:02:08;;;;;;;3.65;3.03;;;;;;;;;;5076122;28;20032;-65
2021/05/14 05:04:38;;;;;;;2.60;2.40;;;;;;;;;;5076070;28;20030;-66
2021/05/14 05:07:07;;;;;;;3.17;2.90;;;;;;;;;;5076037;28;20051;-66
2021/05/14 05:09:33;;;;;;;7.20;5.93;;;;;;;;;;5076097;28;20082;-67
2021/05/14 05:11:59;;;;;;;9.63;7.50;;;;;;;;;;5075748;28;20025;-62
2021/05/14 05:14:25;;;;;;;5.38;4.88;;;;;;;;;;5075609;28;20392;-67
2021/05/14 05:16:52;;;;;;;4.80;4.40;;;;;;;;;;5075150;28;20070;-63
2021/05/14 05:19:18;;;;;;;4.70;3.85;;;;;;;;;;5072821;28;20028;-69
2021/05/14 05:21:44;;;;;;;5.53;4.75;;;;;;;;;;5074150;28;20019;-71
2021/05/14 05:24:10;;;;;;;3.70;3.40;;;;;;;;;;5073046;28;20042;-68
2021/05/14 05:26:36;;;;;;;3.63;3.33;;;;;;;;;;5072793;28;20190;-68
2021/05/14 05:29:03;;;;;;;6.10;3.88;;;;;;;;;;5074239;28;20025;-71
2021/05/14 05:31:30;;;;;;;3.78;3.47;;;;;;;;;;5074046;28;20488;-70
2021/05/14 05:33:56;;;;;;;5.45;3.50;;;;;;;;;;5073827;28;20017;-70
2021/05/14 05:36:22;;;;;;;3.92;2.80;;;;;;;;;;5074127;28;20044;-64
2021/05/14 05:38:51;;;;;;;2.67;2.53;;;;;;;;;;5074561;28;20027;-65
2021/05/14 05:41:18;;;;;;;3.08;2.80;;;;;;;;;;5075057;28;20031;-64
2021/05/14 05:43:44;;;;;;;3.13;2.78;;;;;;;;;;5075371;28;20050;-65
2021/05/14 05:46:11;;;;;;;5.47;3.78;;;;;;;;;;5075008;28;20052;-65
2021/05/14 05:48:37;;;;;;;4.88;3.28;;;;;;;;;;5074734;28;20400;-68
2021/05/14 05:51:03;;;;;;;5.00;2.50;;;;;;;;;;5075055;28;20034;-68
2021/05/14 05:53:29;;;;;;;2.40;2.20;;;;;;;;;;5074354;28;20036;-67
2021/05/14 05:55:55;;;;;;;3.17;2.85;;;;;;;;;;5074924;28;20105;-67
2021/05/14 05:58:22;;;;;;;3.67;3.30;;;;;;;;;;5075320;28;20462;-64
2021/05/14 06:00:48;;;;;;;5.20;3.33;;;;;;;;;;5074688;28;20039;-69
2021/05/14 06:03:14;;;;;;;2.70;2.30;;;;;;;;;;5074878;28;20583;-68
2021/05/14 06:05:41;;;;;;;2.58;2.40;;;;;;;;;;5075447;28;20518;-68
2021/05/14 06:08:07;;;;;;;4.00;2.47;;;;;;;;;;5073649;28;20020;-69
2021/05/14 06:10:34;;;;;;;4.57;2.97;;;;;;;;;;5073465;28;20368;-68
2021/05/14 06:13:00;;;;;;;5.35;3.45;;;;;;;;;;5075097;28;20025;-69
2021/05/14 06:15:26;;;;;;;6.00;4.10;;;;;;;;;;5074392;28;20027;-67
2021/05/14 06:17:52;;;;;;;7.45;5.65;;;;;;;;;;5074718;28;20021;-68
2021/05/14 06:20:20;;;;;;;18.88;12.32;;;;;;;;;;5074880;28;20139;-66
2021/05/14 06:22:46;;;;;;;5.95;4.55;;;;;;;;;;5074277;28;20492;-65
2021/05/14 06:25:13;;;;;;;5.97;3.60;;;;;;;;;;5073884;28;20024;-65
2021/05/14 06:27:39;;;;;;;6.82;4.28;;;;;;;;;;5074357;28;20025;-68
2021/05/14 06:30:06;;;;;;;4.57;3.33;;;;;;;;;;5072339;28;20032;-69
2021/05/14 06:32:32;;;;;;;7.07;4.72;;;;;;;;;;5073464;28;20046;-65
2021/05/14 06:34:58;;;;;;;55.80;36.57;;;;;;;;;;5074178;28;20028;-66
2021/05/14 06:37:24;;;;;;;31.98;20.17;;;;;;;;;;5073849;28;20027;-65
2021/05/14 06:39:51;;;;;;;38.72;23.60;;;;;;;;;;5073933;28;20440;-65
2021/05/14 06:42:17;;;;;;;19.05;10.15;;;;;;;;;;5074473;28;20038;-63
2021/05/14 06:44:43;;;;;;;17.38;4.90;;;;;;;;;;5073400;28;20051;-65
2021/05/14 06:47:09;;;;;;;22.53;13.23;;;;;;;;;;5072829;28;20052;-64
2021/05/14 06:49:36;;;;;;;16.48;10.75;;;;;;;;;;5072311;28;20465;-63
2021/05/14 06:52:02;;;;;;;20.42;10.63;;;;;;;;;;5072314;28;20481;-64
2021/05/14 06:54:28;;;;;;;16.98;8.23;;;;;;;;;;5072426;28;20420;-63
2021/05/14 06:56:54;;;;;;;4.70;2.33;;;;;;;;;;5072028;28;20012;-65
2021/05/14 06:59:20;;;;;;;7.55;3.35;;;;;;;;;;5072538;28;20359;-65
2021/05/14 07:01:46;;;;;;;4.93;2.53;;;;;;;;;;5070092;28;20024;-65
2021/05/14 07:04:12;;;;;;;2.75;1.58;;;;;;;;;;5072139;28;20099;-63
2021/05/14 07:06:39;;;;;;;2.85;1.38;;;;;;;;;;5072278;28;20021;-65
2021/05/14 07:09:05;;;;;;;9.70;2.53;;;;;;;;;;5072093;28;20028;-64
2021/05/14 07:11:31;;;;;;;3.08;0.77;;;;;;;;;;5071781;28;20597;-63
2021/05/14 07:13:57;;;;;;;6.90;1.67;;;;;;;;;;5072427;28;20029;-64
2021/05/14 07:16:24;;;;;;;1.75;0.32;;;;;;;;;;5072320;28;20027;-65
2021/05/14 07:18:50;;;;;;;3.20;0.98;;;;;;;;;;5071730;28;20020;-63
2021/05/14 07:21:16;;;;;;;0.70;0.20;;;;;;;;;;5072119;28;20511;-64
2021/05/14 07:23:42;;;;;;;6.28;0.40;;;;;;;;;;5073727;28;20052;-73
2021/05/14 07:26:08;;;;;;;3.95;0.47;;;;;;;;;;5073362;28;20025;-66
2021/05/14 07:28:35;;;;;;;3.53;0.50;;;;;;;;;;5073289;28;20017;-64
2021/05/14 07:31:01;;;;;;;2.28;0.20;;;;;;;;;;5073655;28;20017;-67
2021/05/14 07:33:27;;;;;;;2.63;0.52;;;;;;;;;;5072017;28;20428;-63
2021/05/14 07:35:54;;;;;;;4.40;0.45;;;;;;;;;;5073620;28;20017;-65
2021/05/14 07:38:20;;;;;;;4.95;0.50;;;;;;;;;;5073805;28;20026;-65
2021/05/14 07:40:46;;;;;;;2.05;0.25;;;;;;;;;;5073527;28;20063;-66
2021/05/14 07:43:13;;;;;;;7.60;0.75;;;;;;;;;;5073238;28;20048;-66
2021/05/14 07:45:39;;;;;;;4.30;0.47;;;;;;;;;;5073149;28;20485;-66
2021/05/14 07:48:05;;;;;;;2.35;0.40;;;;;;;;;;5073630;28;20171;-67
2021/05/14 07:50:33;;;;;;;3.80;0.40;;;;;;;;;;5076287;28;20029;-67
2021/05/14 07:53:00;;;;;;;;;;;;;;;;;;5077734;28;20465;-64
2021/05/14 07:55:26;;;;;;;5.43;0.93;;;;;;;;;;5077658;28;19905;-62
2021/05/14 07:57:52;;;;;;;3.00;0.50;;;;;;;;;;5077376;28;20028;-62
2021/05/14 08:00:19;;;;;;;2.92;0.68;;;;;;;;;;5077032;28;20028;-63
2021/05/14 08:02:45;;;;;;;2.10;0.68;;;;;;;;;;5076952;28;20424;-65
2021/05/14 08:05:11;;;;;;;4.13;0.50;;;;;;;;;;5075892;28;20062;-65
2021/05/14 08:07:37;;;;;;;4.90;0.77;;;;;;;;;;5076710;28;20024;-66
2021/05/14 08:10:03;;;;;;;4.18;0.88;;;;;;;;;;5075749;28;20381;-66
2021/05/14 08:12:29;;;;;;;3.45;0.43;;;;;;;;;;5077076;28;20465;-64
2021/05/14 08:14:57;;;;;;;3.20;0.68;;;;;;;;;;5076841;28;20028;-63
2021/05/14 08:17:23;;;;;;;4.15;1.00;;;;;;;;;;5076990;28;20081;-63
2021/05/14 08:19:50;;;;;;;2.53;0.47;;;;;;;;;;5076660;28;20032;-64
2021/05/14 08:22:16;;;;;;;3.80;0.80;;;;;;;;;;5076354;28;20381;-64
2021/05/14 08:24:42;;;;;;;2.13;0.40;;;;;;;;;;5076806;28;20017;-64
2021/05/14 08:27:08;;;;;;;2.08;0.40;;;;;;;;;;5076781;28;20024;-64
2021/05/14 08:29:35;;;;;;;1.95;0.45;;;;;;;;;;5076461;28;20032;-64
2021/05/14 08:32:01;;;;;;;5.03;0.88;;;;;;;;;;5076625;28;20484;-64
2021/05/14 08:34:27;;;;;;;3.33;0.93;;;;;;;;;;5076389;28;20082;-64
2021/05/14 08:36:53;;;;;;;1.77;0.57;;;;;;;;;;5076894;28;20513;-64
2021/05/14 08:39:19;;;;;;;2.63;0.88;;;;;;;;;;5076584;28;20056;-64
2021/05/14 08:41:45;;;;;;;2.47;0.82;;;;;;;;;;5076356;28;20032;-63
2021/05/14 08:44:12;;;;;;;5.68;0.57;;;;;;;;;;5076768;28;20020;-64
2021/05/14 08:46:38;;;;;;;3.15;0.88;;;;;;;;;;5076544;28;20055;-64
2021/05/14 08:49:05;;;;;;;5.30;0.93;;;;;;;;;;5076033;28;20090;-64
2021/05/14 08:51:32;;;;;;;3.65;1.60;;;;;;;;;;5076361;28;20103;-64
2021/05/14 08:54:01;;;;;;;4.15;0.73;;;;;;;;;;5076050;28;20025;-64
2021/05/14 08:56:28;;;;;;;3.17;0.50;;;;;;;;;;5075939;28;20052;-64
2021/05/14 08:58:54;;;;;;;4.13;0.60;;;;;;;;;;5076242;28;20033;-64
2021/05/14 09:01:20;;;;;;;6.43;0.80;;;;;;;;;;5074929;28;20025;-65
2021/05/14 09:04:07;;;;;;;2.03;0.40;;;;;;;;;;5075825;28;20033;-65
2021/05/14 09:06:36;;;;;;;2.40;0.80;;;;;;;;;;5074620;28;20054;-65
2021/05/14 09:09:06;;;;;;;2.42;1.10;;;;;;;;;;5075919;28;20028;-65
2021/05/14 09:11:33;;;;;;;4.85;0.85;;;;;;;;;;5076252;28;20021;-64
2021/05/14 09:13:59;;;;;;;3.95;0.98;;;;;;;;;;5075653;28;20021;-65
2021/05/14 09:16:42;;;;;;;2.20;0.30;;;;;;;;;;5076420;28;20037;-65
2021/05/14 09:19:08;;;;;;;2.63;0.57;;;;;;;;;;5076115;28;20409;-65
2021/05/14 09:21:35;;;;;;;2.03;0.50;;;;;;;;;;5075531;28;20465;-65
2021/05/14 09:24:01;;;;;;;3.20;0.80;;;;;;;;;;5075745;28;20060;-65
2021/05/14 09:26:31;;;;;;;4.70;0.50;;;;;;;;;;5075410;28;20024;-65
2021/05/14 09:28:57;;;;;;;2.95;0.80;;;;;;;;;;5075290;28;20043;-65
2021/05/14 09:31:25;;;;;;;3.75;0.43;;;;;;;;;;5075365;28;20027;-65
2021/05/14 09:33:55;;;;;;;1.35;0.40;;;;;;;;;;5075538;28;20031;-65
2021/05/14 09:36:22;;;;;;;2.20;0.68;;;;;;;;;;5075197;28;20023;-66
2021/05/14 09:38:48;;;;;;;;;;;;;;;;;;5075996;28;20016;-65
2021/05/14 09:41:35;;;;;;;1.50;0.33;;;;;;;;;;5075437;28;20402;-65
2021/05/14 09:44:03;;;;;;;2.50;0.40;;;;;;;;;;5075439;28;20021;-66
2021/05/14 09:46:39;;;;;;;2.83;0.30;;;;;;;;;;5075278;28;20099;-66
2021/05/14 09:49:07;;;;;;;1.90;0.40;;;;;;;;;;5074915;28;20024;-65
2021/05/14 09:51:33;;;;;;;2.30;0.20;;;;;;;;;;5074934;28;20033;-66
2021/05/14 09:54:38;;;;;;;2.63;0.00;;;;;;;;;;5075473;28;20027;-65
2021/05/14 09:59:48;;;;;;;2.25;0.43;;;;;;;;;;5032925;28;20044;-65
2021/05/14 10:02:22;;;;;;;3.08;0.32;;;;;;;;;;5057659;28;20036;-66
2021/05/14 10:04:48;;;;;;;2.45;0.35;;;;;;;;;;5074697;28;20047;-65
2021/05/14 10:07:15;;;;;;;2.65;0.88;;;;;;;;;;5074887;28;20021;-66
2021/05/14 10:09:41;;;;;;;3.00;0.75;;;;;;;;;;5074471;28;20048;-66
2021/05/14 10:12:08;;;;;;;2.75;0.70;;;;;;;;;;5074393;28;20377;-65
2021/05/14 10:14:35;;;;;;;0.50;0.10;;;;;;;;;;5074563;28;20025;-64
2021/05/14 10:17:01;;;;;;;2.47;0.73;;;;;;;;;;5074665;28;20063;-68
2021/05/14 10:19:28;;;;;;;3.10;0.25;;;;;;;;;;5073393;28;20276;-69
2021/05/14 10:21:55;;;;;;;2.45;0.63;;;;;;;;;;5073343;28;20017;-69
2021/05/14 10:24:39;;;;;;;4.50;0.55;;;;;;;;;;5073984;28;20032;-67
2021/05/14 10:27:15;;;;;;;2.25;0.40;;;;;;;;;;5074485;28;20055;-69
2021/05/14 10:29:45;;;;;;;3.33;1.02;;;;;;;;;;5074082;28;20111;-68
2021/05/14 10:32:12;;;;;;;1.08;0.50;;;;;;;;;;5074052;28;20095;-68
2021/05/14 10:34:38;;;;;;;5.38;1.52;;;;;;;;;;5074371;28;20017;-69
2021/05/14 10:37:04;;;;;;;3.70;0.63;;;;;;;;;;5073717;28;20035;-62
2021/05/14 10:39:33;;;;;;;1.38;0.13;;;;;;;;;;5074261;28;20028;-63
2021/05/14 10:42:01;;;;;;;1.45;0.63;;;;;;;;;;5074254;28;20419;-62
2021/05/14 10:44:39;;;;;;;7.55;0.65;;;;;;;;;;5073886;28;20028;-62
2021/05/14 10:47:24;;;;;;;4.28;0.68;;;;;;;;;;5073790;28;20477;-62
2021/05/14 10:52:27;;;;;;;1.38;0.28;;;;;;;;;;5074121;28;20045;-64
2021/05/14 10:54:54;;;;;;;1.55;0.10;;;;;;;;;;5074049;28;20078;-65
2021/05/14 10:57:35;;;;;;;2.80;0.30;;;;;;;;;;5074322;28;20023;-65
2021/05/14 11:00:20;;;;;;;2.38;0.10;;;;;;;;;;5073671;28;20086;-67
2021/05/14 11:02:46;;;;;;;2.55;0.70;;;;;;;;;;5073629;28;20036;-67
2021/05/14 11:05:26;;;;;;;5.93;0.50;;;;;;;;;;5073698;28;20092;-67
2021/05/14 11:07:52;;;;;;;2.83;0.70;;;;;;;;;;5074571;28;20021;-67
2021/05/14 11:10:31;;;;;;;4.05;0.80;;;;;;;;;;5074351;28;20024;-68
2021/05/14 11:12:58;;;;;;;4.38;1.83;;;;;;;;;;5073232;28;20497;-66
2021/05/14 11:15:34;;;;;;;1.98;1.25;;;;;;;;;;5074094;28;20028;-67
2021/05/14 11:18:06;;;;;;;12.85;2.10;;;;;;;;;;5073470;28;20350;-67
2021/05/14 11:20:51;;;;;;;4.80;1.52;;;;;;;;;;5073412;28;20487;-67
2021/05/14 11:23:34;;;;;;;4.68;1.27;;;;;;;;;;5073498;28;20461;-67
2021/05/14 11:26:01;;;;;;;4.60;1.80;;;;;;;;;;5073279;28;20055;-66
2021/05/14 11:28:56;;;;;;;4.00;0.77;;;;;;;;;;5073691;28;20036;-66
2021/05/14 11:31:23;;;;;;;8.82;0.40;;;;;;;;;;5065065;28;20055;-66
2021/05/14 11:33:54;;;;;;;3.53;0.40;;;;;;;;;;5073381;28;20021;-65
2021/05/14 11:36:21;;;;;;;5.40;0.55;;;;;;;;;;5073512;28;20079;-65
2021/05/14 11:38:51;;;;;;;4.40;1.13;;;;;;;;;;5073654;28;20020;-65
2021/05/14 11:41:27;;;;;;;5.28;1.63;;;;;;;;;;5073573;28;20028;-62
2021/05/14 11:43:54;;;;;;;8.07;1.57;;;;;;;;;;5073811;28;20025;-63
2021/05/14 11:46:23;;;;;;;1.95;0.38;;;;;;;;;;5073612;28;20730;-63
2021/05/14 11:48:49;;;;;;;11.00;2.83;;;;;;;;;;5073139;28;20070;-63
2021/05/14 11:51:15;;;;;;;8.45;1.70;;;;;;;;;;5073757;28;20032;-63
2021/05/14 11:53:42;;;;;;;6.47;0.98;;;;;;;;;;5073368;28;20047;-62
2021/05/14 11:56:08;;;;;;;3.38;0.70;;;;;;;;;;5073404;28;20091;-63
2021/05/14 11:58:34;;;;;;;5.38;0.98;;;;;;;;;;5073061;28;20021;-63
2021/05/14 12:01:03;;;;;;;3.23;1.47;;;;;;;;;;5071707;28;20457;-62
2021/05/14 12:03:29;;;;;;;7.90;3.42;;;;;;;;;;5073152;28;20116;-64
2021/05/14 12:06:03;;;;;;;3.70;0.45;;;;;;;;;;5073108;28;20036;-68
2021/05/14 12:08:29;;;;;;;7.97;2.70;;;;;;;;;;5070409;28;20020;-63
2021/05/14 12:10:56;;;;;;;10.82;4.03;;;;;;;;;;5071342;28;20025;-63
2021/05/14 12:13:23;;;;;;;10.05;2.63;;;;;;;;;;5071596;28;20507;-64
2021/05/14 12:15:58;;;;;;;3.17;0.85;;;;;;;;;;5070377;28;20079;-62
2021/05/14 12:18:25;;;;;;;12.45;0.95;;;;;;;;;;5069975;28;20092;-63
2021/05/14 12:20:53;;;;;;;9.40;0.10;;;;;;;;;;5072140;28;20025;-63
2021/05/14 12:23:21;;;;;;;12.40;3.78;;;;;;;;;;5071396;28;20397;-63
2021/05/14 12:25:54;;;;;;;3.33;0.10;;;;;;;;;;5072541;28;20025;-63
2021/05/14 12:28:37;;;;;;;7.75;1.58;;;;;;;;;;5073739;28;20075;-63
2021/05/14 12:31:06;;;;;;;3.58;0.63;;;;;;;;;;5072863;28;20033;-63
2021/05/14 12:33:33;;;;;;;2.00;0.35;;;;;;;;;;5073552;28;20016;-63
2021/05/14 12:36:00;;;;;;;6.68;1.58;;;;;;;;;;5074804;28;20091;-63
2021/05/14 12:38:26;;;;;;;;;;;;;;;;;;5076717;28;20457;-63
2021/05/14 12:40:52;;;;;;;2.10;0.20;;;;;;;;;;5075846;28;19999;-63
2021/05/14 12:43:18;;;;;;;0.03;0.00;;;;;;;;;;5076246;28;20052;-63
2021/05/14 12:45:44;;;;;;;3.42;0.55;;;;;;;;;;5076858;28;20109;-63
2021/05/14 12:48:10;;;;;;;6.25;0.80;;;;;;;;;;5076250;28;20086;-64
2021/05/14 12:50:37;;;;;;;0.55;0.10;;;;;;;;;;5075815;28;20032;-64
2021/05/14 12:53:03;;;;;;;3.53;0.45;;;;;;;;;;5076691;28;20033;-63
2021/05/14 12:55:38;;;;;;;3.40;0.20;;;;;;;;;;5076558;28;20029;-63
2021/05/14 12:58:05;;;;;;;0.57;0.00;;;;;;;;;;5075596;28;20385;-63
2021/05/14 13:00:38;;;;;;;0.93;0.00;;;;;;;;;;5076246;28;20028;-72
2021/05/14 13:03:06;;;;;;;2.85;0.30;;;;;;;;;;5076783;28;20025;-69
2021/05/14 13:05:41;;;;;;;1.85;0.90;;;;;;;;;;5076076;28;20024;-69
2021/05/14 13:08:11;;;;;;;1.25;0.00;;;;;;;;;;5074510;28;20062;-71
2021/05/14 13:10:38;;;;;;;3.20;0.10;;;;;;;;;;5074616;28;20032;-70
2021/05/14 13:13:05;;;;;;;0.30;0.10;;;;;;;;;;5075348;28;20074;-69
2021/05/14 13:15:32;;;;;;;2.10;0.00;;;;;;;;;;5075952;28;20021;-71
2021/05/14 13:17:58;;;;;;;1.08;0.30;;;;;;;;;;5075593;28;20020;-70
2021/05/14 13:20:24;;;;;;;0.60;0.15;;;;;;;;;;5074302;28;20491;-69
2021/05/14 13:22:50;;;;;;;4.45;0.65;;;;;;;;;;5075492;28;20476;-70
2021/05/14 13:25:16;;;;;;;0.80;0.05;;;;;;;;;;5074065;28;20027;-69
2021/05/14 13:27:43;;;;;;;0.82;0.10;;;;;;;;;;5076051;28;20024;-71
2021/05/14 13:30:10;;;;;;;1.70;0.10;;;;;;;;;;5074415;28;20020;-69
2021/05/14 13:32:36;;;;;;;0.65;0.00;;;;;;;;;;5075353;28;20036;-70
2021/05/14 13:35:04;;;;;;;0.00;0.00;;;;;;;;;;5075669;28;20036;-70
2021/05/14 13:37:30;;;;;;;1.98;0.10;;;;;;;;;;5075784;28;20048;-72
2021/05/14 13:39:57;;;;;;;2.35;0.10;;;;;;;;;;5073836;28;20028;-71
2021/05/14 13:42:23;;;;;;;3.13;0.00;;;;;;;;;;5075675;28;20050;-72
2021/05/14 13:44:49;;;;;;;2.47;0.10;;;;;;;;;;5075064;28;20602;-71
2021/05/14 13:47:15;;;;;;;0.10;0.03;;;;;;;;;;5072476;28;20048;-71
2021/05/14 13:49:41;;;;;;;0.63;0.00;;;;;;;;;;5073397;28;20027;-72
2021/05/14 13:52:08;;;;;;;0.22;0.00;;;;;;;;;;5072256;28;20059;-72
2021/05/14 13:54:34;;;;;;;0.82;0.65;;;;;;;;;;5074517;28;20048;-71
2021/05/14 13:57:00;;;;;;;4.10;0.83;;;;;;;;;;5073938;28;20090;-71
2021/05/14 13:59:26;;;;;;;1.98;0.00;;;;;;;;;;5073810;28;20029;-73
2021/05/14 14:01:52;;;;;;;1.25;0.20;;;;;;;;;;5074803;28;20025;-73
2021/05/14 14:04:19;;;;;;;1.20;0.00;;;;;;;;;;5073698;28;20024;-72
2021/05/14 14:06:45;;;;;;;0.60;0.00;;;;;;;;;;5073566;28;20024;-73
2021/05/14 14:09:11;;;;;;;1.03;0.60;;;;;;;;;;5074296;28;20118;-72
2021/05/14 14:11:37;;;;;;;0.83;0.00;;;;;;;;;;5075106;28;20282;-72
2021/05/14 14:14:04;;;;;;;1.08;0.10;;;;;;;;;;5073173;28;20020;-73
2021/05/14 14:16:30;;;;;;;1.60;0.23;;;;;;;;;;5073464;28;20024;-72
2021/05/14 14:18:56;;;;;;;0.98;0.00;;;;;;;;;;5074720;28;20051;-72
2021/05/14 14:21:22;;;;;;;0.77;0.20;;;;;;;;;;5073073;28;20050;-71
2021/05/14 14:23:49;;;;;;;0.50;0.00;;;;;;;;;;5073344;28;20021;-72
2021/05/14 14:26:15;;;;;;;1.10;0.30;;;;;;;;;;5073273;28;20016;-72
2021/05/14 14:28:41;;;;;;;2.83;0.00;;;;;;;;;;5072225;28;20470;-74
2021/05/14 14:31:07;;;;;;;0.43;0.10;;;;;;;;;;5072654;28;20044;-73
2021/05/14 14:33:33;;;;;;;1.95;0.40;;;;;;;;;;5071812;28;20020;-71
2021/05/14 14:35:59;;;;;;;1.70;0.45;;;;;;;;;;5072578;28;20469;-71
2021/05/14 14:38:25;;;;;;;2.20;0.52;;;;;;;;;;5072926;28;20027;-72
2021/05/14 14:40:51;;;;;;;0.90;0.38;;;;;;;;;;5073987;28;20021;-72
2021/05/14 14:43:18;;;;;;;0.90;0.20;;;;;;;;;;5073911;28;20024;-73
2021/05/14 14:45:44;;;;;;;0.40;0.17;;;;;;;;;;5073999;28;20055;-72
2021/05/14 14:48:10;;;;;;;3.10;0.50;;;;;;;;;;5077192;28;20021;-72
2021/05/14 14:50:36;;;;;;;3.30;0.40;;;;;;;;;;5073599;28;20385;-70
2021/05/14 14:53:04;;;;;;;1.48;0.40;;;;;;;;;;5072788;28;20028;-69
2021/05/14 14:55:30;;;;;;;7.28;1.52;;;;;;;;;;5073792;28;20149;-69